createdAt,value
2023-03-30T00:00:05.000Z,0
2023-03-30T00:01:21.000Z,0
2023-03-30T00:02:37.000Z,0
2023-03-30T00:03:52.000Z,0
2023-03-30T00:05:07.000Z,0
2023-03-30T00:06:23.000Z,0
2023-03-30T00:07:39.000Z,0
2023-03-30T00:08:55.000Z,0
2023-03-30T00:10:12.000Z,0
2023-03-30T00:11:28.000Z,0
2023-03-30T00:12:44.000Z,0
2023-03-30T00:14:00.000Z,0
2023-03-30T00:15:16.000Z,0
2023-03-30T00:16:32.000Z,0
2023-03-30T00:17:48.000Z,0
2023-03-30T00:19:04.000Z,0
2023-03-30T00:20:21.000Z,0
2023-03-30T00:21:36.000Z,0
2023-03-30T00:22:52.000Z,0
2023-03-30T00:24:08.000Z,0
2023-03-30T00:25:24.000Z,0
2023-03-30T00:26:40.000Z,0
2023-03-30T00:27:56.000Z,0
2023-03-30T00:29:13.000Z,0
2023-03-30T00:30:29.000Z,0
2023-03-30T00:31:44.000Z,0
2023-03-30T00:32:59.000Z,0
2023-03-30T00:34:14.000Z,0
2023-03-30T00:35:29.000Z,0
2023-03-30T00:36:45.000Z,0
2023-03-30T00:38:02.000Z,0
2023-03-30T00:39:18.000Z,0
2023-03-30T00:40:34.000Z,0
2023-03-30T00:41:50.000Z,0
2023-03-30T00:43:06.000Z,0
2023-03-30T00:44:22.000Z,0
2023-03-30T00:45:38.000Z,0
2023-03-30T00:48:11.000Z,0
2023-03-30T00:49:27.000Z,0
2023-03-30T00:50:43.000Z,0
2023-03-30T00:51:58.000Z,0
2023-03-30T00:53:14.000Z,0
2023-03-30T00:54:30.000Z,0
2023-03-30T00:55:46.000Z,0
2023-03-30T00:57:03.000Z,0
2023-03-30T00:58:19.000Z,0
2023-03-30T00:59:35.000Z,0
2023-03-30T01:00:51.000Z,0
2023-03-30T01:03:22.000Z,0
2023-03-30T01:04:37.000Z,0
2023-03-30T01:07:09.000Z,0
2023-03-30T01:08:25.000Z,0
2023-03-30T01:09:40.000Z,0
2023-03-30T01:10:55.000Z,0
2023-03-30T01:12:11.000Z,0
2023-03-30T01:13:27.000Z,0
2023-03-30T01:14:44.000Z,0
2023-03-30T01:16:00.000Z,0
2023-03-30T01:18:32.000Z,0
2023-03-30T01:19:48.000Z,0
2023-03-30T01:21:04.000Z,0
2023-03-30T01:22:20.000Z,0
2023-03-30T01:23:36.000Z,0
2023-03-30T01:24:53.000Z,0
2023-03-30T01:26:09.000Z,0
2023-03-30T01:27:24.000Z,0
2023-03-30T01:28:40.000Z,0
2023-03-30T01:29:56.000Z,0
2023-03-30T01:31:12.000Z,0
2023-03-30T01:32:28.000Z,0
2023-03-30T01:33:45.000Z,0
2023-03-30T01:35:01.000Z,0
2023-03-30T01:37:33.000Z,0
2023-03-30T01:38:48.000Z,0
2023-03-30T01:40:03.000Z,0
2023-03-30T01:41:19.000Z,0
2023-03-30T01:42:35.000Z,0
2023-03-30T01:43:50.000Z,0
2023-03-30T01:45:06.000Z,0
2023-03-30T01:46:22.000Z,0
2023-03-30T01:47:38.000Z,0
2023-03-30T01:48:54.000Z,0
2023-03-30T01:50:10.000Z,0
2023-03-30T01:51:26.000Z,0
2023-03-30T01:52:43.000Z,0
2023-03-30T01:53:59.000Z,0
2023-03-30T01:55:15.000Z,0
2023-03-30T01:56:31.000Z,0
2023-03-30T01:57:47.000Z,0
2023-03-30T01:59:03.000Z,0
2023-03-30T02:00:18.000Z,0
2023-03-30T02:01:35.000Z,0
2023-03-30T02:02:50.197Z,0
2023-03-30T02:04:06.000Z,0
2023-03-30T02:05:21.000Z,0
2023-03-30T02:06:37.000Z,0
2023-03-30T02:07:52.000Z,0
2023-03-30T02:09:07.000Z,0
2023-03-30T02:10:24.000Z,0
2023-03-30T02:11:40.000Z,0
2023-03-30T02:12:56.000Z,0
2023-03-30T02:14:12.000Z,0
2023-03-30T02:15:28.000Z,0
2023-03-30T02:16:44.000Z,0
2023-03-30T02:18:00.000Z,0
2023-03-30T02:19:16.000Z,0
2023-03-30T02:20:33.000Z,0
2023-03-30T02:21:49.000Z,0
2023-03-30T02:23:05.000Z,0
2023-03-30T02:24:21.000Z,0
2023-03-30T02:25:36.000Z,0
2023-03-30T02:26:52.000Z,0
2023-03-30T02:28:08.000Z,0
2023-03-30T02:29:25.000Z,0
2023-03-30T02:30:41.000Z,0
2023-03-30T02:31:57.000Z,0
2023-03-30T02:33:13.000Z,0
2023-03-30T02:34:29.000Z,0
2023-03-30T02:35:44.000Z,0
2023-03-30T02:36:59.000Z,0
2023-03-30T02:38:15.000Z,0
2023-03-30T02:39:30.000Z,0
2023-03-30T02:40:46.000Z,0
2023-03-30T02:42:02.000Z,0
2023-03-30T02:43:18.000Z,0
2023-03-30T02:44:34.000Z,0
2023-03-30T02:45:50.000Z,0
2023-03-30T02:47:06.000Z,0
2023-03-30T02:48:23.000Z,0
2023-03-30T02:49:39.000Z,0
2023-03-30T02:50:55.000Z,0
2023-03-30T02:52:11.000Z,0
2023-03-30T02:53:27.000Z,0
2023-03-30T02:54:43.000Z,0
2023-03-30T02:55:58.000Z,0
2023-03-30T02:57:15.000Z,0
2023-03-30T02:58:31.000Z,0
2023-03-30T02:59:47.000Z,0
2023-03-30T03:01:03.000Z,0
2023-03-30T03:02:19.000Z,0
2023-03-30T03:03:35.000Z,0
2023-03-30T03:04:50.000Z,0
2023-03-30T03:06:06.000Z,0
2023-03-30T03:07:21.000Z,0
2023-03-30T03:08:36.000Z,0
2023-03-30T03:09:52.000Z,0
2023-03-30T03:11:08.000Z,0
2023-03-30T03:12:24.000Z,0
2023-03-30T03:13:40.000Z,0
2023-03-30T03:14:56.000Z,0
2023-03-30T03:16:13.000Z,0
2023-03-30T03:17:29.000Z,0
2023-03-30T03:18:45.000Z,0
2023-03-30T03:20:01.000Z,0
2023-03-30T03:21:17.000Z,0
2023-03-30T03:22:33.000Z,0
2023-03-30T03:23:49.000Z,0
2023-03-30T03:25:05.000Z,0
2023-03-30T03:26:21.000Z,0
2023-03-30T03:27:37.000Z,0
2023-03-30T03:28:53.000Z,0
2023-03-30T03:30:09.000Z,0
2023-03-30T03:31:25.000Z,0
2023-03-30T03:32:41.000Z,0
2023-03-30T03:33:57.000Z,0
2023-03-30T03:35:12.000Z,0
2023-03-30T03:36:27.000Z,0
2023-03-30T03:37:42.000Z,0
2023-03-30T03:38:58.000Z,0
2023-03-30T03:40:14.000Z,0
2023-03-30T03:41:30.000Z,0
2023-03-30T03:42:46.000Z,0
2023-03-30T03:44:03.000Z,0
2023-03-30T03:45:18.000Z,0
2023-03-30T03:46:34.000Z,0
2023-03-30T03:47:50.000Z,0
2023-03-30T03:49:06.000Z,0
2023-03-30T03:50:22.000Z,0
2023-03-30T03:51:38.000Z,0
2023-03-30T03:52:55.000Z,0
2023-03-30T03:54:11.000Z,0
2023-03-30T03:55:27.000Z,0
2023-03-30T03:56:43.000Z,0
2023-03-30T03:57:59.000Z,0
2023-03-30T03:59:15.000Z,0
2023-03-30T04:00:31.000Z,0
2023-03-30T04:01:47.000Z,0
2023-03-30T04:03:02.000Z,0
2023-03-30T04:05:33.000Z,0
2023-03-30T04:06:49.000Z,0
2023-03-30T04:08:05.000Z,0
2023-03-30T04:09:21.000Z,0
2023-03-30T04:10:37.000Z,0
2023-03-30T04:11:54.000Z,0
2023-03-30T04:13:10.000Z,0
2023-03-30T04:14:26.000Z,0
2023-03-30T04:15:42.000Z,0
2023-03-30T04:16:58.000Z,0
2023-03-30T04:18:14.000Z,0
2023-03-30T04:19:30.000Z,0
2023-03-30T04:20:46.000Z,0
2023-03-30T04:22:02.000Z,0
2023-03-30T04:23:18.000Z,0
2023-03-30T04:24:34.000Z,0
2023-03-30T04:25:50.000Z,0
2023-03-30T04:27:06.000Z,0
2023-03-30T04:28:22.000Z,0
2023-03-30T04:29:38.000Z,0
2023-03-30T04:30:54.000Z,0
2023-03-30T04:32:09.000Z,0
2023-03-30T04:33:25.000Z,0
2023-03-30T04:34:41.000Z,0
2023-03-30T04:35:57.000Z,0
2023-03-30T04:37:13.000Z,0
2023-03-30T04:38:29.000Z,0
2023-03-30T04:39:46.000Z,0
2023-03-30T04:41:02.000Z,0
2023-03-30T04:42:18.000Z,4
2023-03-30T04:43:34.000Z,4
2023-03-30T04:44:50.000Z,4
2023-03-30T04:46:06.000Z,4
2023-03-30T04:47:22.000Z,4
2023-03-30T04:48:38.000Z,8
2023-03-30T04:49:54.000Z,8
2023-03-30T04:51:10.000Z,4
2023-03-30T04:52:26.000Z,8
2023-03-30T04:53:42.000Z,8
2023-03-30T04:54:58.000Z,12
2023-03-30T04:56:14.000Z,12
2023-03-30T04:58:46.000Z,20
2023-03-30T05:00:01.000Z,24
2023-03-30T05:01:16.000Z,28
2023-03-30T05:02:31.000Z,32
2023-03-30T05:03:46.000Z,52
2023-03-30T05:05:01.000Z,68
2023-03-30T05:06:17.000Z,80
2023-03-30T05:07:33.000Z,104
2023-03-30T05:08:49.000Z,100
2023-03-30T05:10:05.000Z,92
2023-03-30T05:11:21.000Z,80
2023-03-30T05:12:37.000Z,76
2023-03-30T05:13:53.000Z,68
2023-03-30T05:15:09.000Z,68
2023-03-30T05:16:26.000Z,64
2023-03-30T05:17:42.000Z,72
2023-03-30T05:18:58.000Z,72
2023-03-30T05:20:14.000Z,76
2023-03-30T05:21:30.000Z,80
2023-03-30T05:22:45.000Z,84
2023-03-30T05:24:01.000Z,104
2023-03-30T05:25:18.000Z,124
2023-03-30T05:26:34.000Z,176
2023-03-30T05:27:50.000Z,232
2023-03-30T05:29:06.000Z,280
2023-03-30T05:30:22.000Z,268
2023-03-30T05:31:37.000Z,260
2023-03-30T05:32:52.000Z,296
2023-03-30T05:34:08.000Z,436
2023-03-30T05:35:24.000Z,516
2023-03-30T05:36:40.000Z,592
2023-03-30T05:37:55.000Z,684
2023-03-30T05:39:11.000Z,708
2023-03-30T05:40:27.000Z,696
2023-03-30T05:41:43.000Z,532
2023-03-30T05:42:59.000Z,580
2023-03-30T05:44:16.000Z,680
2023-03-30T05:45:32.000Z,1080
2023-03-30T05:46:48.000Z,1272
2023-03-30T05:48:04.000Z,852
2023-03-30T05:49:20.000Z,720
2023-03-30T05:50:36.000Z,1196
2023-03-30T05:51:52.000Z,1348
2023-03-30T05:53:09.000Z,968
2023-03-30T05:54:24.000Z,760
2023-03-30T05:55:40.000Z,828
2023-03-30T05:56:56.000Z,1132
2023-03-30T05:58:12.000Z,1340
2023-03-30T05:59:28.000Z,1056
2023-03-30T06:00:44.000Z,748
2023-03-30T06:01:59.000Z,716
2023-03-30T06:03:15.000Z,760
2023-03-30T06:04:31.000Z,792
2023-03-30T06:05:47.000Z,800
2023-03-30T06:07:02.000Z,712
2023-03-30T06:08:17.000Z,744
2023-03-30T06:09:33.000Z,860
2023-03-30T06:10:49.000Z,980
2023-03-30T06:12:06.000Z,1016
2023-03-30T06:13:22.000Z,1008
2023-03-30T06:14:38.000Z,920
2023-03-30T06:15:54.000Z,1108
2023-03-30T06:17:10.000Z,1552
2023-03-30T06:18:26.000Z,1660
2023-03-30T06:19:42.000Z,2000
2023-03-30T06:20:59.000Z,2448
2023-03-30T06:22:15.000Z,2584
2023-03-30T06:23:31.000Z,2444
2023-03-30T06:24:46.000Z,2556
2023-03-30T06:26:02.000Z,2752
2023-03-30T06:27:18.000Z,2976
2023-03-30T06:28:34.000Z,3132
2023-03-30T06:29:50.000Z,2996
2023-03-30T06:31:07.000Z,3004
2023-03-30T06:32:23.000Z,3460
2023-03-30T06:33:38.000Z,3500
2023-03-30T06:34:53.000Z,4688
2023-03-30T06:36:08.000Z,4072
2023-03-30T06:37:23.000Z,4120
2023-03-30T06:38:39.000Z,4944
2023-03-30T06:39:56.000Z,6116
2023-03-30T06:41:12.000Z,3860
2023-03-30T06:42:28.000Z,3296
2023-03-30T06:45:00.000Z,1704
2023-03-30T06:46:16.000Z,1708
2023-03-30T06:47:32.000Z,1796
2023-03-30T06:48:49.000Z,1844
2023-03-30T06:50:05.000Z,2124
2023-03-30T06:51:21.000Z,2588
2023-03-30T06:52:37.000Z,2436
2023-03-30T06:53:52.000Z,2624
2023-03-30T06:55:08.000Z,2144
2023-03-30T06:56:24.000Z,2588
2023-03-30T06:57:40.000Z,3344
2023-03-30T06:58:57.000Z,4036
2023-03-30T07:00:13.000Z,3908
2023-03-30T07:01:29.000Z,3160
2023-03-30T07:02:45.000Z,3060
2023-03-30T07:04:00.000Z,4052
2023-03-30T07:05:15.000Z,5868
2023-03-30T07:06:30.000Z,6364
2023-03-30T07:07:46.000Z,5736
2023-03-30T07:09:02.000Z,6120
2023-03-30T07:10:18.000Z,7080
2023-03-30T07:11:34.000Z,8600
2023-03-30T07:12:50.000Z,9372
2023-03-30T07:14:06.000Z,9504
2023-03-30T07:15:22.000Z,10808
2023-03-30T07:16:39.000Z,11448
2023-03-30T07:17:55.000Z,11244
2023-03-30T07:19:11.000Z,11824
2023-03-30T07:20:27.000Z,12688
2023-03-30T07:21:43.000Z,12364
2023-03-30T07:22:59.000Z,11232
2023-03-30T07:24:14.000Z,11436
2023-03-30T07:25:30.000Z,11300
2023-03-30T07:26:47.000Z,10512
2023-03-30T07:28:03.000Z,9704
2023-03-30T07:29:19.000Z,9540
2023-03-30T07:30:35.000Z,9744
2023-03-30T07:31:51.000Z,9860
2023-03-30T07:33:06.000Z,10364
2023-03-30T07:34:21.000Z,9656
2023-03-30T07:35:38.000Z,8764
2023-03-30T07:36:53.000Z,9260
2023-03-30T07:38:08.000Z,9608
2023-03-30T07:39:24.000Z,7492
2023-03-30T07:40:40.000Z,6100
2023-03-30T07:41:56.000Z,4832
2023-03-30T07:43:12.000Z,6016
2023-03-30T07:44:29.000Z,7424
2023-03-30T07:45:45.000Z,8184
2023-03-30T07:47:01.000Z,6148
2023-03-30T07:48:17.000Z,3940
2023-03-30T07:49:33.000Z,4100
2023-03-30T07:50:49.000Z,6732
2023-03-30T07:52:05.000Z,10460
2023-03-30T07:53:21.000Z,9592
2023-03-30T07:54:37.000Z,9252
2023-03-30T07:55:53.000Z,14580
2023-03-30T07:57:09.000Z,17440
2023-03-30T07:58:25.000Z,15768
2023-03-30T07:59:41.000Z,13952
2023-03-30T08:00:56.000Z,11460
2023-03-30T08:02:12.000Z,9240
2023-03-30T08:03:29.000Z,10776
2023-03-30T08:04:45.000Z,11256
2023-03-30T08:06:01.000Z,13556
2023-03-30T08:07:16.000Z,13644
2023-03-30T08:08:31.000Z,15208
2023-03-30T08:09:47.000Z,13476
2023-03-30T08:11:03.000Z,15660
2023-03-30T08:12:20.000Z,12396
2023-03-30T08:13:36.000Z,10232
2023-03-30T08:14:52.000Z,10072
2023-03-30T08:16:08.000Z,14080
2023-03-30T08:17:24.000Z,8060
2023-03-30T08:18:40.000Z,9928
2023-03-30T08:19:56.000Z,13364
2023-03-30T08:21:12.000Z,22944
2023-03-30T08:22:29.000Z,13932
2023-03-30T08:23:45.000Z,12896
2023-03-30T08:25:00.000Z,11864
2023-03-30T08:26:16.000Z,8648
2023-03-30T08:27:32.000Z,9188
2023-03-30T08:28:48.000Z,10420
2023-03-30T08:30:04.000Z,9016
2023-03-30T08:31:20.000Z,12292
2023-03-30T08:32:37.000Z,18752
2023-03-30T08:33:52.000Z,12328
2023-03-30T08:35:07.000Z,12736
2023-03-30T08:36:23.000Z,6376
2023-03-30T08:37:38.000Z,6204
2023-03-30T08:38:53.000Z,5920
2023-03-30T08:40:09.000Z,7220
2023-03-30T08:41:24.000Z,5668
2023-03-30T08:42:40.000Z,5124
2023-03-30T08:43:56.000Z,5420
2023-03-30T08:45:12.000Z,3164
2023-03-30T08:46:28.000Z,3084
2023-03-30T08:47:44.000Z,3136
2023-03-30T08:49:00.000Z,4728
2023-03-30T08:50:17.000Z,5264
2023-03-30T08:51:33.000Z,5016
2023-03-30T08:52:49.000Z,5772
2023-03-30T08:54:05.000Z,5288
2023-03-30T08:55:21.000Z,3980
2023-03-30T08:56:37.000Z,3084
2023-03-30T08:57:52.000Z,2512
2023-03-30T08:59:09.000Z,1684
2023-03-30T09:00:25.000Z,1300
2023-03-30T09:01:41.000Z,924
2023-03-30T09:02:57.000Z,752
2023-03-30T09:04:13.000Z,756
2023-03-30T09:05:29.000Z,656
2023-03-30T09:06:44.000Z,480
2023-03-30T09:08:00.000Z,404
2023-03-30T09:09:16.000Z,796
2023-03-30T09:10:31.000Z,1228
2023-03-30T09:11:46.000Z,1728
2023-03-30T09:13:02.000Z,1812
2023-03-30T09:14:18.000Z,1644
2023-03-30T09:15:34.000Z,1384
2023-03-30T09:16:50.000Z,1028
2023-03-30T09:18:07.000Z,872
2023-03-30T09:19:23.000Z,760
2023-03-30T09:20:39.000Z,692
2023-03-30T09:21:55.000Z,700
2023-03-30T09:23:11.000Z,616
2023-03-30T09:24:27.000Z,580
2023-03-30T09:25:43.000Z,636
2023-03-30T09:27:00.000Z,748
2023-03-30T09:28:15.000Z,800
2023-03-30T09:29:31.000Z,860
2023-03-30T09:30:47.000Z,728
2023-03-30T09:32:03.000Z,1136
2023-03-30T09:33:19.000Z,1308
2023-03-30T09:34:35.000Z,1736
2023-03-30T09:35:51.000Z,1896
2023-03-30T09:37:07.000Z,1952
2023-03-30T09:38:22.000Z,1688
2023-03-30T09:39:38.000Z,1820
2023-03-30T09:40:54.000Z,1836
2023-03-30T09:42:10.000Z,1824
2023-03-30T09:43:25.000Z,2032
2023-03-30T09:44:40.000Z,1820
2023-03-30T09:45:57.000Z,1716
2023-03-30T09:47:13.000Z,1680
2023-03-30T09:48:29.000Z,1604
2023-03-30T09:49:45.000Z,1812
2023-03-30T09:51:01.000Z,1936
2023-03-30T09:52:17.000Z,2152
2023-03-30T09:53:33.000Z,1948
2023-03-30T09:54:50.000Z,1420
2023-03-30T09:56:06.000Z,1596
2023-03-30T09:57:22.000Z,1848
2023-03-30T09:58:38.000Z,2804
2023-03-30T09:59:54.000Z,2372
2023-03-30T10:01:09.000Z,2476
2023-03-30T10:02:25.000Z,3196
2023-03-30T10:03:41.000Z,3444
2023-03-30T10:04:58.000Z,4168
2023-03-30T10:06:14.000Z,5000
2023-03-30T10:07:30.000Z,6072
2023-03-30T10:08:46.000Z,6504
2023-03-30T10:10:01.000Z,4352
2023-03-30T10:11:16.000Z,4664
2023-03-30T10:12:32.000Z,5104
2023-03-30T10:13:48.000Z,2896
2023-03-30T10:15:03.000Z,2060
2023-03-30T10:16:19.000Z,3312
2023-03-30T10:17:35.000Z,4164
2023-03-30T10:18:51.000Z,2544
2023-03-30T10:20:07.000Z,1768
2023-03-30T10:21:23.000Z,2428
2023-03-30T10:22:40.000Z,2468
2023-03-30T10:23:56.000Z,2784
2023-03-30T10:25:12.000Z,2396
2023-03-30T10:26:28.000Z,1932
2023-03-30T10:27:44.000Z,2592
2023-03-30T10:29:00.000Z,2420
2023-03-30T10:30:16.000Z,2296
2023-03-30T10:31:31.000Z,2388
2023-03-30T10:32:48.000Z,3260
2023-03-30T10:34:04.000Z,2804
2023-03-30T10:35:20.000Z,2664
2023-03-30T10:36:36.000Z,2184
2023-03-30T10:37:52.000Z,2440
2023-03-30T10:39:08.000Z,2868
2023-03-30T10:40:23.000Z,3068
2023-03-30T10:41:39.000Z,4272
2023-03-30T10:42:55.000Z,5476
2023-03-30T10:44:11.000Z,5896
2023-03-30T10:45:27.000Z,6264
2023-03-30T10:46:42.000Z,5824
2023-03-30T10:47:57.000Z,6200
2023-03-30T10:49:13.000Z,7404
2023-03-30T10:50:30.000Z,9612
2023-03-30T10:51:46.000Z,10744
2023-03-30T10:53:02.000Z,12784
2023-03-30T10:54:18.000Z,6200
2023-03-30T10:55:34.000Z,9636
2023-03-30T10:56:50.000Z,9260
2023-03-30T10:58:06.000Z,7968
2023-03-30T10:59:22.000Z,8504
2023-03-30T11:00:39.000Z,10068
2023-03-30T11:01:55.000Z,7932
2023-03-30T11:03:11.000Z,7752
2023-03-30T11:04:26.000Z,10368
2023-03-30T11:05:42.000Z,11996
2023-03-30T11:06:58.000Z,11828
2023-03-30T11:08:14.000Z,7292
2023-03-30T11:09:31.000Z,6904
2023-03-30T11:10:47.000Z,9324
2023-03-30T11:12:03.000Z,7728
2023-03-30T11:13:18.000Z,4584
2023-03-30T11:14:33.000Z,3532
2023-03-30T11:15:48.000Z,5004
2023-03-30T11:17:03.000Z,4412
2023-03-30T11:18:20.000Z,3136
2023-03-30T11:19:36.000Z,1684
2023-03-30T11:20:52.000Z,2908
2023-03-30T11:22:08.000Z,4152
2023-03-30T11:23:24.000Z,4712
2023-03-30T11:24:40.000Z,4692
2023-03-30T11:25:56.000Z,3240
2023-03-30T11:27:12.000Z,3288
2023-03-30T11:28:29.000Z,2796
2023-03-30T11:29:45.000Z,2360
2023-03-30T11:31:01.000Z,2064
2023-03-30T11:32:17.000Z,1548
2023-03-30T11:33:33.000Z,1432
2023-03-30T11:34:48.000Z,2264
2023-03-30T11:36:04.000Z,3420
2023-03-30T11:37:21.000Z,4496
2023-03-30T11:38:37.000Z,4880
2023-03-30T11:39:53.000Z,5580
2023-03-30T11:41:09.000Z,5148
2023-03-30T11:42:24.000Z,4532
2023-03-30T11:43:39.000Z,5228
2023-03-30T11:44:55.000Z,5604
2023-03-30T11:46:12.000Z,4948
2023-03-30T11:47:28.000Z,4904
2023-03-30T11:48:44.000Z,3780
2023-03-30T11:50:00.000Z,3448
2023-03-30T11:51:16.000Z,3800
2023-03-30T11:52:32.000Z,4148
2023-03-30T11:53:48.000Z,3284
2023-03-30T11:55:04.000Z,3000
2023-03-30T11:56:21.000Z,2052
2023-03-30T11:57:37.000Z,2248
2023-03-30T11:58:53.000Z,2704
2023-03-30T12:00:08.000Z,2728
2023-03-30T12:01:24.000Z,3428
2023-03-30T12:02:40.000Z,4496
2023-03-30T12:03:56.000Z,4952
2023-03-30T12:05:12.000Z,5628
2023-03-30T12:06:29.000Z,7308
2023-03-30T12:07:45.000Z,8508
2023-03-30T12:09:00.000Z,9228
2023-03-30T12:10:15.000Z,9404
2023-03-30T12:11:30.000Z,10288
2023-03-30T12:12:45.000Z,10404
2023-03-30T12:14:02.000Z,10260
2023-03-30T12:15:17.000Z,11268
2023-03-30T12:16:33.000Z,12012
2023-03-30T12:17:49.000Z,11832
2023-03-30T12:19:05.000Z,9628
2023-03-30T12:20:21.000Z,7064
2023-03-30T12:21:37.000Z,5664
2023-03-30T12:22:53.000Z,5932
2023-03-30T12:24:10.000Z,6932
2023-03-30T12:25:26.000Z,8268
2023-03-30T12:26:42.000Z,9912
2023-03-30T12:27:58.000Z,9896
2023-03-30T12:29:14.000Z,10464
2023-03-30T12:30:30.000Z,12380
2023-03-30T12:31:45.000Z,11208
2023-03-30T12:33:02.000Z,10820
2023-03-30T12:34:18.000Z,11060
2023-03-30T12:35:34.000Z,10004
2023-03-30T12:36:50.000Z,9680
2023-03-30T12:38:05.000Z,9736
2023-03-30T12:39:20.000Z,10644
2023-03-30T12:40:36.000Z,12076
2023-03-30T12:41:52.000Z,10440
2023-03-30T12:43:07.000Z,10472
2023-03-30T12:44:23.000Z,12076
2023-03-30T12:45:38.000Z,11316
2023-03-30T12:46:53.000Z,11248
2023-03-30T12:48:09.000Z,10580
2023-03-30T12:49:25.000Z,9600
2023-03-30T12:50:41.000Z,11612
2023-03-30T12:51:58.000Z,12692
2023-03-30T12:53:14.000Z,11892
2023-03-30T12:54:30.000Z,12348
2023-03-30T12:55:46.000Z,11484
2023-03-30T12:57:02.000Z,10628
2023-03-30T12:58:18.000Z,11768
2023-03-30T12:59:34.000Z,9892
2023-03-30T13:00:51.000Z,8448
2023-03-30T13:02:07.000Z,10176
2023-03-30T13:03:22.000Z,8068
2023-03-30T13:04:38.000Z,7952
2023-03-30T13:05:54.000Z,7868
2023-03-30T13:07:10.000Z,6472
2023-03-30T13:08:26.000Z,9868
2023-03-30T13:09:42.000Z,9824
2023-03-30T13:10:59.000Z,13460
2023-03-30T13:12:14.000Z,14080
2023-03-30T13:13:29.000Z,11488
2023-03-30T13:14:45.000Z,13488
2023-03-30T13:16:01.000Z,13940
2023-03-30T13:17:17.000Z,8864
2023-03-30T13:18:33.000Z,9528
2023-03-30T13:19:49.000Z,11312
2023-03-30T13:21:04.000Z,12480
2023-03-30T13:22:20.000Z,10748
2023-03-30T13:23:36.000Z,10168
2023-03-30T13:24:52.000Z,8208
2023-03-30T13:26:08.000Z,6152
2023-03-30T13:27:24.000Z,4384
2023-03-30T13:28:41.000Z,4168
2023-03-30T13:29:57.000Z,6048
2023-03-30T13:31:13.000Z,7280
2023-03-30T13:32:29.000Z,9632
2023-03-30T13:33:45.000Z,9624
2023-03-30T13:35:01.000Z,6532
2023-03-30T13:36:17.000Z,5020
2023-03-30T13:37:32.000Z,4644
2023-03-30T13:38:49.000Z,4216
2023-03-30T13:40:05.000Z,4924
2023-03-30T13:41:21.000Z,4780
2023-03-30T13:42:37.000Z,4352
2023-03-30T13:43:53.000Z,4204
2023-03-30T13:45:09.000Z,4364
2023-03-30T13:46:24.000Z,3972
2023-03-30T13:47:40.000Z,4692
2023-03-30T13:48:55.000Z,4772
2023-03-30T13:50:11.000Z,4612
2023-03-30T13:51:26.000Z,3976
2023-03-30T13:52:42.000Z,5744
2023-03-30T13:53:58.000Z,5964
2023-03-30T13:55:14.000Z,4048
2023-03-30T13:56:31.000Z,4312
2023-03-30T13:57:47.000Z,3800
2023-03-30T13:59:03.000Z,4764
2023-03-30T14:00:19.000Z,3740
2023-03-30T14:01:35.000Z,3484
2023-03-30T14:02:51.000Z,3524
2023-03-30T14:04:07.000Z,3412
2023-03-30T14:05:23.000Z,3448
2023-03-30T14:06:40.000Z,3316
2023-03-30T14:07:55.000Z,2988
2023-03-30T14:09:11.000Z,3148
2023-03-30T14:10:27.000Z,3296
2023-03-30T14:11:43.000Z,3516
2023-03-30T14:12:59.000Z,4320
2023-03-30T14:14:15.000Z,5060
2023-03-30T14:15:31.000Z,5256
2023-03-30T14:16:46.000Z,6644
2023-03-30T14:18:01.000Z,8184
2023-03-30T14:19:16.000Z,8484
2023-03-30T14:20:32.000Z,8788
2023-03-30T14:21:48.000Z,9108
2023-03-30T14:23:04.000Z,9024
2023-03-30T14:24:21.000Z,8636
2023-03-30T14:25:37.000Z,8716
2023-03-30T14:26:53.000Z,7472
2023-03-30T14:28:09.000Z,6556
2023-03-30T14:29:25.000Z,7640
2023-03-30T14:30:41.000Z,4940
2023-03-30T14:31:57.000Z,3732
2023-03-30T14:33:13.000Z,2580
2023-03-30T14:34:30.000Z,2244
2023-03-30T14:35:45.000Z,2096
2023-03-30T14:37:01.000Z,2236
2023-03-30T14:38:17.000Z,2028
2023-03-30T14:39:33.000Z,1520
2023-03-30T14:40:49.000Z,1392
2023-03-30T14:42:05.000Z,1388
2023-03-30T14:43:22.000Z,1024
2023-03-30T14:44:38.000Z,928
2023-03-30T14:45:53.000Z,952
2023-03-30T14:47:08.000Z,1284
2023-03-30T14:48:24.000Z,952
2023-03-30T14:49:39.000Z,1048
2023-03-30T14:50:54.000Z,744
2023-03-30T14:52:11.000Z,572
2023-03-30T14:53:27.000Z,448
2023-03-30T14:54:43.000Z,372
2023-03-30T14:55:59.000Z,420
2023-03-30T14:57:15.000Z,496
2023-03-30T14:58:31.000Z,584
2023-03-30T14:59:47.000Z,772
2023-03-30T15:01:03.000Z,1176
2023-03-30T15:02:20.000Z,1136
2023-03-30T15:03:36.000Z,1284
2023-03-30T15:04:52.000Z,1480
2023-03-30T15:06:08.000Z,1352
2023-03-30T15:07:23.000Z,1732
2023-03-30T15:08:39.000Z,2240
2023-03-30T15:09:55.000Z,2364
2023-03-30T15:11:12.000Z,3016
2023-03-30T15:13:44.000Z,4060
2023-03-30T15:15:00.000Z,2280
2023-03-30T15:16:16.000Z,1840
2023-03-30T15:17:31.000Z,1660
2023-03-30T15:18:46.000Z,1796
2023-03-30T15:20:02.000Z,1700
2023-03-30T15:21:18.000Z,1640
2023-03-30T15:22:33.000Z,1152
2023-03-30T15:23:49.000Z,1108
2023-03-30T15:25:05.000Z,1288
2023-03-30T15:26:21.000Z,1936
2023-03-30T15:27:37.000Z,2380
2023-03-30T15:28:53.000Z,2572
2023-03-30T15:30:10.000Z,3296
2023-03-30T15:31:26.000Z,4156
2023-03-30T15:32:42.000Z,5412
2023-03-30T15:33:58.000Z,7324
2023-03-30T15:35:14.000Z,7604
2023-03-30T15:36:30.000Z,5596
2023-03-30T15:37:46.000Z,3400
2023-03-30T15:39:02.000Z,2828
2023-03-30T15:40:18.000Z,2448
2023-03-30T15:41:34.000Z,2200
2023-03-30T15:42:50.000Z,2132
2023-03-30T15:44:06.000Z,2028
2023-03-30T15:45:22.000Z,2020
2023-03-30T15:46:38.000Z,2012
2023-03-30T15:47:54.000Z,2020
2023-03-30T15:49:09.000Z,1876
2023-03-30T15:50:24.000Z,1824
2023-03-30T15:51:39.000Z,1820
2023-03-30T15:52:55.000Z,2572
2023-03-30T15:54:11.000Z,3628
2023-03-30T15:55:27.000Z,2828
2023-03-30T15:56:44.000Z,3156
2023-03-30T15:58:00.000Z,2664
2023-03-30T15:59:16.000Z,2804
2023-03-30T16:00:32.000Z,2868
2023-03-30T16:01:48.000Z,2780
2023-03-30T16:03:04.000Z,2348
2023-03-30T16:04:20.000Z,2004
2023-03-30T16:05:36.000Z,1844
2023-03-30T16:06:53.000Z,1800
2023-03-30T16:08:08.000Z,1780
2023-03-30T16:09:24.000Z,1712
2023-03-30T16:10:40.000Z,1716
2023-03-30T16:11:56.000Z,1808
2023-03-30T16:13:12.000Z,1792
2023-03-30T16:14:28.000Z,1676
2023-03-30T16:15:44.000Z,1872
2023-03-30T16:17:00.000Z,1868
2023-03-30T16:18:15.000Z,1988
2023-03-30T16:19:31.000Z,2016
2023-03-30T16:20:46.000Z,1904
2023-03-30T16:22:01.000Z,1728
2023-03-30T16:23:17.000Z,1680
2023-03-30T16:24:34.000Z,1668
2023-03-30T16:25:50.000Z,1648
2023-03-30T16:27:06.000Z,1640
2023-03-30T16:28:22.000Z,1620
2023-03-30T16:29:37.000Z,1576
2023-03-30T16:30:53.000Z,1552
2023-03-30T16:32:09.000Z,1532
2023-03-30T16:33:25.000Z,1580
2023-03-30T16:34:42.000Z,1856
2023-03-30T16:35:58.000Z,1572
2023-03-30T16:37:14.000Z,1660
2023-03-30T16:38:30.000Z,2288
2023-03-30T16:39:46.000Z,4396
2023-03-30T16:41:02.000Z,3884
2023-03-30T16:42:18.000Z,3092
2023-03-30T16:43:35.000Z,3612
2023-03-30T16:44:51.000Z,3332
2023-03-30T16:46:06.000Z,3516
2023-03-30T16:47:22.000Z,3812
2023-03-30T16:48:37.000Z,2904
2023-03-30T16:49:52.000Z,2472
2023-03-30T16:51:08.000Z,2064
2023-03-30T16:52:24.000Z,1812
2023-03-30T16:53:40.000Z,1636
2023-03-30T16:54:55.000Z,1524
2023-03-30T16:56:11.000Z,1440
2023-03-30T16:57:27.000Z,1400
2023-03-30T16:58:43.000Z,1332
2023-03-30T16:59:59.000Z,1252
2023-03-30T17:01:15.000Z,1212
2023-03-30T17:02:32.000Z,1172
2023-03-30T17:03:48.000Z,1148
2023-03-30T17:05:04.000Z,1120
2023-03-30T17:06:20.000Z,1096
2023-03-30T17:07:36.000Z,1088
2023-03-30T17:08:52.000Z,1084
2023-03-30T17:10:08.000Z,1076
2023-03-30T17:11:24.000Z,1052
2023-03-30T17:12:40.000Z,1040
2023-03-30T17:13:56.000Z,1016
2023-03-30T17:15:12.000Z,992
2023-03-30T17:16:28.000Z,976
2023-03-30T17:17:44.000Z,940
2023-03-30T17:19:00.000Z,908
2023-03-30T17:20:15.000Z,896
2023-03-30T17:22:47.000Z,868
2023-03-30T17:24:02.000Z,844
2023-03-30T17:25:18.000Z,832
2023-03-30T17:26:33.000Z,788
2023-03-30T17:27:49.000Z,760
2023-03-30T17:29:05.000Z,768
2023-03-30T17:30:22.000Z,744
2023-03-30T17:31:38.000Z,736
2023-03-30T17:32:54.000Z,668